sensor_id;sensor_type;location;lat;lon;timestamp;temperature;humidity
41756;DHT22;27435;48.480;9.258;2024-03-29T00:00:42;7.50;81.50
41756;DHT22;27435;48.480;9.258;2024-03-29T00:03:09;7.50;81.10
41756;DHT22;27435;48.480;9.258;2024-03-29T00:05:35;7.60;80.90
41756;DHT22;27435;48.480;9.258;2024-03-29T00:08:01;7.70;80.80
41756;DHT22;27435;48.480;9.258;2024-03-29T00:10:27;7.70;81.10
41756;DHT22;27435;48.480;9.258;2024-03-29T00:12:52;7.70;80.60
41756;DHT22;27435;48.480;9.258;2024-03-29T00:15:18;7.70;80.90
41756;DHT22;27435;48.480;9.258;2024-03-29T00:17:44;7.70;79.90
41756;DHT22;27435;48.480;9.258;2024-03-29T00:20:09;7.80;79.10
41756;DHT22;27435;48.480;9.258;2024-03-29T00:22:35;7.80;80.20
41756;DHT22;27435;48.480;9.258;2024-03-29T00:25:01;7.70;79.90
41756;DHT22;27435;48.480;9.258;2024-03-29T00:27:27;7.70;79.60
41756;DHT22;27435;48.480;9.258;2024-03-29T00:29:54;7.70;80.10
41756;DHT22;27435;48.480;9.258;2024-03-29T00:32:23;7.80;79.80
41756;DHT22;27435;48.480;9.258;2024-03-29T00:34:50;7.80;79.60
41756;DHT22;27435;48.480;9.258;2024-03-29T00:37:16;7.70;80.40
41756;DHT22;27435;48.480;9.258;2024-03-29T00:39:42;7.60;80.30
41756;DHT22;27435;48.480;9.258;2024-03-29T00:42:08;7.50;80.90
41756;DHT22;27435;48.480;9.258;2024-03-29T00:44:35;7.50;80.30
41756;DHT22;27435;48.480;9.258;2024-03-29T00:47:02;7.50;80.70
41756;DHT22;27435;48.480;9.258;2024-03-29T00:49:28;7.50;80.80
41756;DHT22;27435;48.480;9.258;2024-03-29T00:51:55;7.40;81.30
41756;DHT22;27435;48.480;9.258;2024-03-29T00:54:20;7.30;81.30
41756;DHT22;27435;48.480;9.258;2024-03-29T00:56:46;7.30;81.00
41756;DHT22;27435;48.480;9.258;2024-03-29T00:59:12;7.20;81.80
41756;DHT22;27435;48.480;9.258;2024-03-29T01:01:37;7.20;82.30
41756;DHT22;27435;48.480;9.258;2024-03-29T01:04:04;7.20;82.90
41756;DHT22;27435;48.480;9.258;2024-03-29T01:06:29;7.10;84.00
41756;DHT22;27435;48.480;9.258;2024-03-29T01:08:55;7.00;84.50
41756;DHT22;27435;48.480;9.258;2024-03-29T01:11:20;7.00;85.10
41756;DHT22;27435;48.480;9.258;2024-03-29T01:13:46;7.00;85.60
41756;DHT22;27435;48.480;9.258;2024-03-29T01:16:12;7.00;85.80
41756;DHT22;27435;48.480;9.258;2024-03-29T01:18:37;6.90;85.80
41756;DHT22;27435;48.480;9.258;2024-03-29T01:21:04;6.90;86.50
41756;DHT22;27435;48.480;9.258;2024-03-29T01:23:29;6.80;86.90
41756;DHT22;27435;48.480;9.258;2024-03-29T01:25:55;6.90;86.60
41756;DHT22;27435;48.480;9.258;2024-03-29T01:28:21;7.00;86.00
41756;DHT22;27435;48.480;9.258;2024-03-29T01:30:55;7.00;85.80
41756;DHT22;27435;48.480;9.258;2024-03-29T01:33:21;7.00;86.00
41756;DHT22;27435;48.480;9.258;2024-03-29T01:35:47;7.00;86.10
41756;DHT22;27435;48.480;9.258;2024-03-29T01:38:14;7.00;86.10
41756;DHT22;27435;48.480;9.258;2024-03-29T01:40:40;7.00;86.40
41756;DHT22;27435;48.480;9.258;2024-03-29T01:43:05;6.90;86.60
41756;DHT22;27435;48.480;9.258;2024-03-29T01:45:40;7.00;86.10
41756;DHT22;27435;48.480;9.258;2024-03-29T01:48:07;7.00;85.80
41756;DHT22;27435;48.480;9.258;2024-03-29T01:50:35;7.10;86.30
41756;DHT22;27435;48.480;9.258;2024-03-29T01:53:01;7.10;86.10
41756;DHT22;27435;48.480;9.258;2024-03-29T01:55:27;7.10;85.20
41756;DHT22;27435;48.480;9.258;2024-03-29T01:57:53;7.10;84.40
41756;DHT22;27435;48.480;9.258;2024-03-29T02:00:19;7.30;83.10
41756;DHT22;27435;48.480;9.258;2024-03-29T02:02:45;7.40;84.20
41756;DHT22;27435;48.480;9.258;2024-03-29T02:05:11;7.40;83.40
41756;DHT22;27435;48.480;9.258;2024-03-29T02:07:37;7.40;83.60
41756;DHT22;27435;48.480;9.258;2024-03-29T02:10:04;7.40;83.50
41756;DHT22;27435;48.480;9.258;2024-03-29T02:12:32;7.40;83.90
41756;DHT22;27435;48.480;9.258;2024-03-29T02:14:58;7.30;83.90
41756;DHT22;27435;48.480;9.258;2024-03-29T02:17:25;7.40;83.90
41756;DHT22;27435;48.480;9.258;2024-03-29T02:19:50;7.30;84.90
41756;DHT22;27435;48.480;9.258;2024-03-29T02:22:17;7.20;84.00
41756;DHT22;27435;48.480;9.258;2024-03-29T02:24:44;7.40;81.60
41756;DHT22;27435;48.480;9.258;2024-03-29T02:27:09;7.50;82.00
41756;DHT22;27435;48.480;9.258;2024-03-29T02:29:36;7.60;80.50
41756;DHT22;27435;48.480;9.258;2024-03-29T02:32:05;7.60;82.40
41756;DHT22;27435;48.480;9.258;2024-03-29T02:34:31;7.70;80.10
41756;DHT22;27435;48.480;9.258;2024-03-29T02:36:56;7.90;77.50
41756;DHT22;27435;48.480;9.258;2024-03-29T02:39:22;8.10;76.70
41756;DHT22;27435;48.480;9.258;2024-03-29T02:41:48;8.20;76.70
41756;DHT22;27435;48.480;9.258;2024-03-29T02:44:14;8.20;76.90
41756;DHT22;27435;48.480;9.258;2024-03-29T02:46:41;8.20;76.40
41756;DHT22;27435;48.480;9.258;2024-03-29T02:49:07;8.10;76.10
41756;DHT22;27435;48.480;9.258;2024-03-29T02:51:33;8.00;77.40
41756;DHT22;27435;48.480;9.258;2024-03-29T02:53:59;7.90;77.40
41756;DHT22;27435;48.480;9.258;2024-03-29T02:56:24;7.90;78.20
41756;DHT22;27435;48.480;9.258;2024-03-29T02:58:50;7.80;78.50
41756;DHT22;27435;48.480;9.258;2024-03-29T03:01:16;7.70;79.00
41756;DHT22;27435;48.480;9.258;2024-03-29T03:03:41;7.70;78.10
41756;DHT22;27435;48.480;9.258;2024-03-29T03:06:07;7.80;78.00
41756;DHT22;27435;48.480;9.258;2024-03-29T03:08:32;7.90;76.40
41756;DHT22;27435;48.480;9.258;2024-03-29T03:11:17;8.00;75.80
41756;DHT22;27435;48.480;9.258;2024-03-29T03:13:42;8.20;76.10
41756;DHT22;27435;48.480;9.258;2024-03-29T03:16:08;8.30;74.90
41756;DHT22;27435;48.480;9.258;2024-03-29T03:18:33;8.30;74.10
41756;DHT22;27435;48.480;9.258;2024-03-29T03:20:59;8.40;74.30
41756;DHT22;27435;48.480;9.258;2024-03-29T03:23:25;8.50;72.20
41756;DHT22;27435;48.480;9.258;2024-03-29T03:25:55;8.50;72.70
41756;DHT22;27435;48.480;9.258;2024-03-29T03:28:21;8.60;72.20
41756;DHT22;27435;48.480;9.258;2024-03-29T03:30:50;8.60;72.40
41756;DHT22;27435;48.480;9.258;2024-03-29T03:33:18;8.50;72.90
41756;DHT22;27435;48.480;9.258;2024-03-29T03:35:44;8.50;72.30
41756;DHT22;27435;48.480;9.258;2024-03-29T03:38:10;8.50;72.70
41756;DHT22;27435;48.480;9.258;2024-03-29T03:40:37;8.50;72.70
41756;DHT22;27435;48.480;9.258;2024-03-29T03:43:03;8.50;73.00
41756;DHT22;27435;48.480;9.258;2024-03-29T03:45:37;8.50;72.60
41756;DHT22;27435;48.480;9.258;2024-03-29T03:48:07;8.60;72.20
41756;DHT22;27435;48.480;9.258;2024-03-29T03:50:33;8.60;72.80
41756;DHT22;27435;48.480;9.258;2024-03-29T03:52:59;8.60;73.30
41756;DHT22;27435;48.480;9.258;2024-03-29T03:55:25;8.70;72.40
41756;DHT22;27435;48.480;9.258;2024-03-29T03:57:51;8.70;71.80
41756;DHT22;27435;48.480;9.258;2024-03-29T04:00:18;8.70;71.70
41756;DHT22;27435;48.480;9.258;2024-03-29T04:02:51;8.70;71.80
41756;DHT22;27435;48.480;9.258;2024-03-29T04:05:18;8.80;71.40
41756;DHT22;27435;48.480;9.258;2024-03-29T04:07:44;8.80;71.00
41756;DHT22;27435;48.480;9.258;2024-03-29T04:10:10;8.90;71.00
41756;DHT22;27435;48.480;9.258;2024-03-29T04:12:35;8.90;70.90
41756;DHT22;27435;48.480;9.258;2024-03-29T04:15:01;8.90;70.60
41756;DHT22;27435;48.480;9.258;2024-03-29T04:17:28;8.90;70.50
41756;DHT22;27435;48.480;9.258;2024-03-29T04:19:56;8.90;70.30
41756;DHT22;27435;48.480;9.258;2024-03-29T04:22:22;9.00;69.70
41756;DHT22;27435;48.480;9.258;2024-03-29T04:24:48;9.00;69.70
41756;DHT22;27435;48.480;9.258;2024-03-29T04:27:14;9.00;69.80
41756;DHT22;27435;48.480;9.258;2024-03-29T04:29:39;9.00;69.90
41756;DHT22;27435;48.480;9.258;2024-03-29T04:32:05;9.00;69.70
41756;DHT22;27435;48.480;9.258;2024-03-29T04:34:31;9.00;69.50
41756;DHT22;27435;48.480;9.258;2024-03-29T04:36:57;9.10;68.80
41756;DHT22;27435;48.480;9.258;2024-03-29T04:39:22;9.10;68.80
41756;DHT22;27435;48.480;9.258;2024-03-29T04:41:48;9.10;68.30
41756;DHT22;27435;48.480;9.258;2024-03-29T04:44:25;9.20;68.40
41756;DHT22;27435;48.480;9.258;2024-03-29T04:46:52;9.20;68.40
41756;DHT22;27435;48.480;9.258;2024-03-29T04:49:23;9.10;69.70
41756;DHT22;27435;48.480;9.258;2024-03-29T04:51:56;9.30;67.40
41756;DHT22;27435;48.480;9.258;2024-03-29T04:54:22;9.30;67.30
41756;DHT22;27435;48.480;9.258;2024-03-29T04:56:52;9.40;66.80
41756;DHT22;27435;48.480;9.258;2024-03-29T04:59:17;9.50;66.40
41756;DHT22;27435;48.480;9.258;2024-03-29T05:01:44;9.60;66.30
41756;DHT22;27435;48.480;9.258;2024-03-29T05:04:10;9.70;65.80
41756;DHT22;27435;48.480;9.258;2024-03-29T05:06:36;9.70;66.10
41756;DHT22;27435;48.480;9.258;2024-03-29T05:09:01;9.70;64.90
41756;DHT22;27435;48.480;9.258;2024-03-29T05:11:27;9.80;64.90
41756;DHT22;27435;48.480;9.258;2024-03-29T05:13:53;9.90;64.90
41756;DHT22;27435;48.480;9.258;2024-03-29T05:16:18;9.90;65.30
41756;DHT22;27435;48.480;9.258;2024-03-29T05:18:44;9.80;65.70
41756;DHT22;27435;48.480;9.258;2024-03-29T05:21:09;9.80;65.60
41756;DHT22;27435;48.480;9.258;2024-03-29T05:23:35;9.80;65.20
41756;DHT22;27435;48.480;9.258;2024-03-29T05:26:01;9.80;66.00
41756;DHT22;27435;48.480;9.258;2024-03-29T05:28:27;9.80;66.00
41756;DHT22;27435;48.480;9.258;2024-03-29T05:30:52;9.70;66.40
41756;DHT22;27435;48.480;9.258;2024-03-29T05:33:18;9.70;66.60
41756;DHT22;27435;48.480;9.258;2024-03-29T05:35:44;9.60;67.20
41756;DHT22;27435;48.480;9.258;2024-03-29T05:38:09;9.60;67.90
41756;DHT22;27435;48.480;9.258;2024-03-29T05:40:35;9.60;68.10
41756;DHT22;27435;48.480;9.258;2024-03-29T05:43:01;9.50;68.00
41756;DHT22;27435;48.480;9.258;2024-03-29T05:45:31;9.50;68.30
41756;DHT22;27435;48.480;9.258;2024-03-29T05:47:58;9.50;68.60
41756;DHT22;27435;48.480;9.258;2024-03-29T05:50:25;9.50;68.40
41756;DHT22;27435;48.480;9.258;2024-03-29T05:52:54;9.40;67.60
41756;DHT22;27435;48.480;9.258;2024-03-29T05:55:19;9.50;67.90
41756;DHT22;27435;48.480;9.258;2024-03-29T05:57:45;9.50;68.10
41756;DHT22;27435;48.480;9.258;2024-03-29T06:00:12;9.50;66.70
41756;DHT22;27435;48.480;9.258;2024-03-29T06:02:42;9.70;66.70
41756;DHT22;27435;48.480;9.258;2024-03-29T06:05:10;9.70;66.30
41756;DHT22;27435;48.480;9.258;2024-03-29T06:07:35;9.80;67.00
41756;DHT22;27435;48.480;9.258;2024-03-29T06:10:01;10.00;66.20
41756;DHT22;27435;48.480;9.258;2024-03-29T06:12:32;10.10;65.60
41756;DHT22;27435;48.480;9.258;2024-03-29T06:14:57;10.30;65.60
41756;DHT22;27435;48.480;9.258;2024-03-29T06:17:42;10.50;65.90
41756;DHT22;27435;48.480;9.258;2024-03-29T06:20:08;10.60;64.70
41756;DHT22;27435;48.480;9.258;2024-03-29T06:22:33;10.80;64.10
41756;DHT22;27435;48.480;9.258;2024-03-29T06:24:59;11.00;64.00
41756;DHT22;27435;48.480;9.258;2024-03-29T06:27:31;11.20;63.10
41756;DHT22;27435;48.480;9.258;2024-03-29T06:29:56;11.40;62.30
41756;DHT22;27435;48.480;9.258;2024-03-29T06:32:22;11.50;62.90
41756;DHT22;27435;48.480;9.258;2024-03-29T06:34:48;11.60;62.80
41756;DHT22;27435;48.480;9.258;2024-03-29T06:37:14;11.70;62.10
41756;DHT22;27435;48.480;9.258;2024-03-29T06:39:39;11.80;62.40
41756;DHT22;27435;48.480;9.258;2024-03-29T06:42:05;11.70;62.40
41756;DHT22;27435;48.480;9.258;2024-03-29T06:44:34;11.70;62.20
41756;DHT22;27435;48.480;9.258;2024-03-29T06:47:00;11.80;62.70
41756;DHT22;27435;48.480;9.258;2024-03-29T06:49:26;11.70;63.40
41756;DHT22;27435;48.480;9.258;2024-03-29T06:51:51;11.70;63.10
41756;DHT22;27435;48.480;9.258;2024-03-29T06:54:19;11.60;63.20
41756;DHT22;27435;48.480;9.258;2024-03-29T06:56:48;11.50;64.80
41756;DHT22;27435;48.480;9.258;2024-03-29T06:59:13;11.40;64.80
41756;DHT22;27435;48.480;9.258;2024-03-29T07:01:39;11.30;65.30
41756;DHT22;27435;48.480;9.258;2024-03-29T07:04:05;11.20;65.90
41756;DHT22;27435;48.480;9.258;2024-03-29T07:06:30;11.30;66.20
41756;DHT22;27435;48.480;9.258;2024-03-29T07:08:56;11.30;66.30
41756;DHT22;27435;48.480;9.258;2024-03-29T07:11:21;11.20;66.90
41756;DHT22;27435;48.480;9.258;2024-03-29T07:13:47;11.00;69.00
41756;DHT22;27435;48.480;9.258;2024-03-29T07:16:13;11.00;71.80
41756;DHT22;27435;48.480;9.258;2024-03-29T07:18:38;10.80;73.60
41756;DHT22;27435;48.480;9.258;2024-03-29T07:21:04;10.70;74.70
41756;DHT22;27435;48.480;9.258;2024-03-29T07:23:30;10.60;75.60
41756;DHT22;27435;48.480;9.258;2024-03-29T07:26:03;10.70;75.10
41756;DHT22;27435;48.480;9.258;2024-03-29T07:28:29;10.70;72.60
41756;DHT22;27435;48.480;9.258;2024-03-29T07:30:55;10.70;73.30
41756;DHT22;27435;48.480;9.258;2024-03-29T07:33:23;10.70;73.20
41756;DHT22;27435;48.480;9.258;2024-03-29T07:35:54;10.80;71.40
41756;DHT22;27435;48.480;9.258;2024-03-29T07:38:21;10.70;71.80
41756;DHT22;27435;48.480;9.258;2024-03-29T07:40:47;10.80;73.30
41756;DHT22;27435;48.480;9.258;2024-03-29T07:43:13;10.90;74.10
41756;DHT22;27435;48.480;9.258;2024-03-29T07:45:40;10.90;75.80
41756;DHT22;27435;48.480;9.258;2024-03-29T07:48:10;11.00;77.90
41756;DHT22;27435;48.480;9.258;2024-03-29T07:50:36;10.90;78.80
41756;DHT22;27435;48.480;9.258;2024-03-29T07:53:02;11.00;77.80
41756;DHT22;27435;48.480;9.258;2024-03-29T07:55:28;11.00;78.60
41756;DHT22;27435;48.480;9.258;2024-03-29T07:57:53;11.10;76.50
41756;DHT22;27435;48.480;9.258;2024-03-29T08:00:19;11.30;77.50
41756;DHT22;27435;48.480;9.258;2024-03-29T08:02:45;11.30;77.10
41756;DHT22;27435;48.480;9.258;2024-03-29T08:05:11;11.40;77.70
41756;DHT22;27435;48.480;9.258;2024-03-29T08:07:37;11.70;78.30
41756;DHT22;27435;48.480;9.258;2024-03-29T08:10:03;12.10;76.90
41756;DHT22;27435;48.480;9.258;2024-03-29T08:12:28;12.30;76.40
41756;DHT22;27435;48.480;9.258;2024-03-29T08:14:54;12.20;76.30
41756;DHT22;27435;48.480;9.258;2024-03-29T08:17:19;12.40;75.90
41756;DHT22;27435;48.480;9.258;2024-03-29T08:19:45;12.50;75.30
41756;DHT22;27435;48.480;9.258;2024-03-29T08:22:11;12.70;75.30
41756;DHT22;27435;48.480;9.258;2024-03-29T08:24:37;12.90;74.70
41756;DHT22;27435;48.480;9.258;2024-03-29T08:27:03;13.00;73.00
41756;DHT22;27435;48.480;9.258;2024-03-29T08:29:29;13.00;73.20
41756;DHT22;27435;48.480;9.258;2024-03-29T08:31:54;13.10;74.00
41756;DHT22;27435;48.480;9.258;2024-03-29T08:34:20;13.40;71.50
41756;DHT22;27435;48.480;9.258;2024-03-29T08:36:46;13.60;70.40
41756;DHT22;27435;48.480;9.258;2024-03-29T08:39:12;13.90;68.80
41756;DHT22;27435;48.480;9.258;2024-03-29T08:41:38;14.20;69.60
41756;DHT22;27435;48.480;9.258;2024-03-29T08:44:05;14.60;67.60
41756;DHT22;27435;48.480;9.258;2024-03-29T08:46:31;14.80;65.70
41756;DHT22;27435;48.480;9.258;2024-03-29T08:48:56;15.10;65.70
41756;DHT22;27435;48.480;9.258;2024-03-29T08:51:22;15.40;65.60
41756;DHT22;27435;48.480;9.258;2024-03-29T08:53:48;15.50;64.30
41756;DHT22;27435;48.480;9.258;2024-03-29T08:56:14;15.40;68.00
41756;DHT22;27435;48.480;9.258;2024-03-29T08:58:41;15.30;74.20
41756;DHT22;27435;48.480;9.258;2024-03-29T09:01:06;15.60;73.50
41756;DHT22;27435;48.480;9.258;2024-03-29T09:03:32;15.70;73.80
41756;DHT22;27435;48.480;9.258;2024-03-29T09:05:57;15.70;71.80
41756;DHT22;27435;48.480;9.258;2024-03-29T09:08:23;15.30;73.50
41756;DHT22;27435;48.480;9.258;2024-03-29T09:10:49;15.00;74.00
41756;DHT22;27435;48.480;9.258;2024-03-29T09:13:17;15.00;73.60
41756;DHT22;27435;48.480;9.258;2024-03-29T09:15:43;15.10;74.40
41756;DHT22;27435;48.480;9.258;2024-03-29T09:18:09;15.10;73.40
41756;DHT22;27435;48.480;9.258;2024-03-29T09:20:37;14.90;73.80
41756;DHT22;27435;48.480;9.258;2024-03-29T09:23:03;14.70;74.20
41756;DHT22;27435;48.480;9.258;2024-03-29T09:25:29;14.40;75.80
41756;DHT22;27435;48.480;9.258;2024-03-29T09:27:55;14.50;76.70
41756;DHT22;27435;48.480;9.258;2024-03-29T09:30:21;14.40;78.40
41756;DHT22;27435;48.480;9.258;2024-03-29T09:32:47;14.40;78.60
41756;DHT22;27435;48.480;9.258;2024-03-29T09:35:17;14.30;78.80
41756;DHT22;27435;48.480;9.258;2024-03-29T09:37:43;13.60;80.20
41756;DHT22;27435;48.480;9.258;2024-03-29T09:40:10;12.80;82.80
41756;DHT22;27435;48.480;9.258;2024-03-29T09:42:38;12.60;84.80
41756;DHT22;27435;48.480;9.258;2024-03-29T09:45:05;12.80;85.40
41756;DHT22;27435;48.480;9.258;2024-03-29T09:47:32;12.90;83.30
41756;DHT22;27435;48.480;9.258;2024-03-29T09:50:07;13.40;82.80
41756;DHT22;27435;48.480;9.258;2024-03-29T09:52:34;13.70;81.50
41756;DHT22;27435;48.480;9.258;2024-03-29T09:55:00;13.70;81.20
41756;DHT22;27435;48.480;9.258;2024-03-29T09:57:27;13.90;81.30
41756;DHT22;27435;48.480;9.258;2024-03-29T09:59:56;14.30;79.90
41756;DHT22;27435;48.480;9.258;2024-03-29T10:02:27;14.60;78.60
41756;DHT22;27435;48.480;9.258;2024-03-29T10:04:55;14.40;79.00
41756;DHT22;27435;48.480;9.258;2024-03-29T10:07:23;14.30;78.50
41756;DHT22;27435;48.480;9.258;2024-03-29T10:09:49;14.60;78.50
41756;DHT22;27435;48.480;9.258;2024-03-29T10:12:16;14.80;76.80
41756;DHT22;27435;48.480;9.258;2024-03-29T10:14:49;14.50;77.20
41756;DHT22;27435;48.480;9.258;2024-03-29T10:17:17;14.50;77.90
41756;DHT22;27435;48.480;9.258;2024-03-29T10:19:44;14.40;77.80
41756;DHT22;27435;48.480;9.258;2024-03-29T10:22:09;14.40;78.60
41756;DHT22;27435;48.480;9.258;2024-03-29T10:24:37;14.60;78.80
41756;DHT22;27435;48.480;9.258;2024-03-29T10:27:03;14.90;77.90
41756;DHT22;27435;48.480;9.258;2024-03-29T10:29:29;15.20;77.30
41756;DHT22;27435;48.480;9.258;2024-03-29T10:31:58;15.40;76.50
41756;DHT22;27435;48.480;9.258;2024-03-29T10:34:27;15.40;77.40
41756;DHT22;27435;48.480;9.258;2024-03-29T10:36:55;15.90;76.70
41756;DHT22;27435;48.480;9.258;2024-03-29T10:39:21;16.40;75.40
41756;DHT22;27435;48.480;9.258;2024-03-29T10:41:47;16.40;75.30
41756;DHT22;27435;48.480;9.258;2024-03-29T10:44:13;16.10;74.90
41756;DHT22;27435;48.480;9.258;2024-03-29T10:46:40;16.20;76.10
41756;DHT22;27435;48.480;9.258;2024-03-29T10:49:09;16.00;76.40
41756;DHT22;27435;48.480;9.258;2024-03-29T10:51:40;16.60;75.00
41756;DHT22;27435;48.480;9.258;2024-03-29T10:54:08;16.90;74.20
41756;DHT22;27435;48.480;9.258;2024-03-29T10:56:36;16.80;74.30
41756;DHT22;27435;48.480;9.258;2024-03-29T10:59:22;16.80;74.60
41756;DHT22;27435;48.480;9.258;2024-03-29T11:02:00;16.50;75.60
41756;DHT22;27435;48.480;9.258;2024-03-29T11:04:36;16.50;75.60
41756;DHT22;27435;48.480;9.258;2024-03-29T11:07:07;16.80;74.50
41756;DHT22;27435;48.480;9.258;2024-03-29T11:09:38;16.70;74.20
41756;DHT22;27435;48.480;9.258;2024-03-29T11:12:05;16.60;74.70
41756;DHT22;27435;48.480;9.258;2024-03-29T11:14:40;16.30;75.40
41756;DHT22;27435;48.480;9.258;2024-03-29T11:17:07;16.00;75.70
41756;DHT22;27435;48.480;9.258;2024-03-29T11:19:35;15.60;76.70
41756;DHT22;27435;48.480;9.258;2024-03-29T11:22:01;15.70;77.30
41756;DHT22;27435;48.480;9.258;2024-03-29T11:24:27;15.30;77.80
41756;DHT22;27435;48.480;9.258;2024-03-29T11:26:54;15.40;77.70
41756;DHT22;27435;48.480;9.258;2024-03-29T11:29:21;15.40;77.70
41756;DHT22;27435;48.480;9.258;2024-03-29T11:31:47;15.30;77.50
41756;DHT22;27435;48.480;9.258;2024-03-29T11:34:19;15.40;77.20
41756;DHT22;27435;48.480;9.258;2024-03-29T11:36:45;15.50;77.30
41756;DHT22;27435;48.480;9.258;2024-03-29T11:39:23;15.90;78.40
41756;DHT22;27435;48.480;9.258;2024-03-29T11:41:49;16.10;78.20
41756;DHT22;27435;48.480;9.258;2024-03-29T11:44:15;16.20;78.50
41756;DHT22;27435;48.480;9.258;2024-03-29T11:46:41;16.60;77.70
41756;DHT22;27435;48.480;9.258;2024-03-29T11:49:07;17.10;76.70
41756;DHT22;27435;48.480;9.258;2024-03-29T11:51:33;17.30;76.30
41756;DHT22;27435;48.480;9.258;2024-03-29T11:54:00;17.40;75.30
41756;DHT22;27435;48.480;9.258;2024-03-29T11:56:26;17.30;76.10
41756;DHT22;27435;48.480;9.258;2024-03-29T11:58:51;17.50;75.40
41756;DHT22;27435;48.480;9.258;2024-03-29T12:01:18;17.70;73.70
41756;DHT22;27435;48.480;9.258;2024-03-29T12:03:44;17.80;73.90
41756;DHT22;27435;48.480;9.258;2024-03-29T12:06:10;17.70;74.00
41756;DHT22;27435;48.480;9.258;2024-03-29T12:08:38;17.90;73.30
41756;DHT22;27435;48.480;9.258;2024-03-29T12:11:05;17.50;75.10
41756;DHT22;27435;48.480;9.258;2024-03-29T12:13:31;17.40;75.20
41756;DHT22;27435;48.480;9.258;2024-03-29T12:15:57;17.40;75.20
41756;DHT22;27435;48.480;9.258;2024-03-29T12:18:25;17.40;76.00
41756;DHT22;27435;48.480;9.258;2024-03-29T12:20:52;17.50;75.00
41756;DHT22;27435;48.480;9.258;2024-03-29T12:23:21;17.40;75.10
41756;DHT22;27435;48.480;9.258;2024-03-29T12:25:49;17.30;75.30
41756;DHT22;27435;48.480;9.258;2024-03-29T12:28:15;17.20;74.80
41756;DHT22;27435;48.480;9.258;2024-03-29T12:30:46;17.40;75.20
41756;DHT22;27435;48.480;9.258;2024-03-29T12:33:13;17.40;75.30
41756;DHT22;27435;48.480;9.258;2024-03-29T12:35:42;17.40;75.70
41756;DHT22;27435;48.480;9.258;2024-03-29T12:38:11;17.40;75.00
41756;DHT22;27435;48.480;9.258;2024-03-29T12:40:38;17.30;74.80
41756;DHT22;27435;48.480;9.258;2024-03-29T12:43:06;17.40;74.50
41756;DHT22;27435;48.480;9.258;2024-03-29T12:45:34;17.10;74.90
41756;DHT22;27435;48.480;9.258;2024-03-29T12:48:00;16.80;76.30
41756;DHT22;27435;48.480;9.258;2024-03-29T12:50:31;16.60;76.70
41756;DHT22;27435;48.480;9.258;2024-03-29T12:53:05;16.50;76.70
41756;DHT22;27435;48.480;9.258;2024-03-29T12:55:31;16.90;76.20
41756;DHT22;27435;48.480;9.258;2024-03-29T12:57:59;17.30;74.80
41756;DHT22;27435;48.480;9.258;2024-03-29T13:00:26;17.30;74.40
41756;DHT22;27435;48.480;9.258;2024-03-29T13:02:53;17.10;74.20
41756;DHT22;27435;48.480;9.258;2024-03-29T13:05:19;17.30;74.80
41756;DHT22;27435;48.480;9.258;2024-03-29T13:07:45;17.50;74.10
41756;DHT22;27435;48.480;9.258;2024-03-29T13:10:11;17.40;74.80
41756;DHT22;27435;48.480;9.258;2024-03-29T13:12:49;17.50;74.20
41756;DHT22;27435;48.480;9.258;2024-03-29T13:15:25;17.70;73.70
41756;DHT22;27435;48.480;9.258;2024-03-29T13:17:52;17.90;71.20
41756;DHT22;27435;48.480;9.258;2024-03-29T13:20:18;17.60;72.90
41756;DHT22;27435;48.480;9.258;2024-03-29T13:22:45;17.60;72.40
41756;DHT22;27435;48.480;9.258;2024-03-29T13:25:18;17.70;72.00
41756;DHT22;27435;48.480;9.258;2024-03-29T13:27:46;18.00;71.70
41756;DHT22;27435;48.480;9.258;2024-03-29T13:30:13;17.80;71.80
41756;DHT22;27435;48.480;9.258;2024-03-29T13:32:40;17.70;72.20
41756;DHT22;27435;48.480;9.258;2024-03-29T13:35:07;17.70;72.00
41756;DHT22;27435;48.480;9.258;2024-03-29T13:37:38;17.90;72.10
41756;DHT22;27435;48.480;9.258;2024-03-29T13:40:08;18.20;71.00
41756;DHT22;27435;48.480;9.258;2024-03-29T13:42:34;18.20;71.30
41756;DHT22;27435;48.480;9.258;2024-03-29T13:45:01;18.40;71.10
41756;DHT22;27435;48.480;9.258;2024-03-29T13:47:27;18.40;70.90
41756;DHT22;27435;48.480;9.258;2024-03-29T13:49:52;18.80;69.70
41756;DHT22;27435;48.480;9.258;2024-03-29T13:52:19;19.20;68.40
41756;DHT22;27435;48.480;9.258;2024-03-29T13:54:46;19.40;68.50
41756;DHT22;27435;48.480;9.258;2024-03-29T13:57:13;19.30;67.60
41756;DHT22;27435;48.480;9.258;2024-03-29T13:59:38;18.90;68.80
41756;DHT22;27435;48.480;9.258;2024-03-29T14:02:04;19.00;68.80
41756;DHT22;27435;48.480;9.258;2024-03-29T14:04:30;19.10;68.30
41756;DHT22;27435;48.480;9.258;2024-03-29T14:06:56;19.40;68.00
41756;DHT22;27435;48.480;9.258;2024-03-29T14:09:22;19.50;67.00
41756;DHT22;27435;48.480;9.258;2024-03-29T14:11:48;19.40;67.00
41756;DHT22;27435;48.480;9.258;2024-03-29T14:14:13;19.50;67.30
41756;DHT22;27435;48.480;9.258;2024-03-29T14:16:39;19.60;66.90
41756;DHT22;27435;48.480;9.258;2024-03-29T14:19:04;19.60;66.80
41756;DHT22;27435;48.480;9.258;2024-03-29T14:21:30;19.80;66.50
41756;DHT22;27435;48.480;9.258;2024-03-29T14:23:57;19.60;66.10
41756;DHT22;27435;48.480;9.258;2024-03-29T14:26:23;19.30;67.20
41756;DHT22;27435;48.480;9.258;2024-03-29T14:28:49;19.00;67.10
41756;DHT22;27435;48.480;9.258;2024-03-29T14:31:15;18.70;68.10
41756;DHT22;27435;48.480;9.258;2024-03-29T14:33:40;18.60;68.40
41756;DHT22;27435;48.480;9.258;2024-03-29T14:36:06;18.50;68.60
41756;DHT22;27435;48.480;9.258;2024-03-29T14:38:32;18.20;69.20
41756;DHT22;27435;48.480;9.258;2024-03-29T14:40:57;18.20;69.40
41756;DHT22;27435;48.480;9.258;2024-03-29T14:43:23;18.40;69.10
41756;DHT22;27435;48.480;9.258;2024-03-29T14:45:49;18.60;68.60
41756;DHT22;27435;48.480;9.258;2024-03-29T14:48:15;18.70;68.20
41756;DHT22;27435;48.480;9.258;2024-03-29T14:50:42;18.50;69.20
41756;DHT22;27435;48.480;9.258;2024-03-29T14:53:07;18.40;69.20
41756;DHT22;27435;48.480;9.258;2024-03-29T14:55:33;18.60;69.10
41756;DHT22;27435;48.480;9.258;2024-03-29T14:58:01;18.80;67.50
41756;DHT22;27435;48.480;9.258;2024-03-29T15:00:27;18.90;67.80
41756;DHT22;27435;48.480;9.258;2024-03-29T15:02:53;19.00;67.70
41756;DHT22;27435;48.480;9.258;2024-03-29T15:05:19;19.10;67.50
41756;DHT22;27435;48.480;9.258;2024-03-29T15:07:44;19.40;67.00
41756;DHT22;27435;48.480;9.258;2024-03-29T15:10:10;19.10;66.60
41756;DHT22;27435;48.480;9.258;2024-03-29T15:12:39;18.70;68.40
41756;DHT22;27435;48.480;9.258;2024-03-29T15:15:05;18.80;67.90
41756;DHT22;27435;48.480;9.258;2024-03-29T15:17:31;18.70;68.40
41756;DHT22;27435;48.480;9.258;2024-03-29T15:19:57;18.70;67.80
41756;DHT22;27435;48.480;9.258;2024-03-29T15:22:22;18.40;68.70
41756;DHT22;27435;48.480;9.258;2024-03-29T15:24:49;18.60;68.30
41756;DHT22;27435;48.480;9.258;2024-03-29T15:27:15;18.50;68.30
41756;DHT22;27435;48.480;9.258;2024-03-29T15:29:59;18.50;68.00
41756;DHT22;27435;48.480;9.258;2024-03-29T15:32:25;18.30;68.40
41756;DHT22;27435;48.480;9.258;2024-03-29T15:34:56;18.20;68.60